sensor_id;sensor_type;location;lat;lon;timestamp;P1;durP1;ratioP1;P2;durP2;ratioP2
45676;SDS011;31390;51.186;6.830;2022-12-18T00:01:47;20.90;;;14.80;;
45676;SDS011;31390;51.186;6.830;2022-12-18T00:04:15;21.97;;;15.10;;
45676;SDS011;31390;51.186;6.830;2022-12-18T00:06:45;22.03;;;13.77;;
45676;SDS011;31390;51.186;6.830;2022-12-18T00:09:13;20.90;;;14.57;;
45676;SDS011;31390;51.186;6.830;2022-12-18T00:11:40;22.60;;;14.73;;
45676;SDS011;31390;51.186;6.830;2022-12-18T00:14:06;23.33;;;15.07;;
45676;SDS011;31390;51.186;6.830;2022-12-18T00:16:32;22.10;;;14.53;;
45676;SDS011;31390;51.186;6.830;2022-12-18T00:19:02;20.17;;;13.57;;
45676;SDS011;31390;51.186;6.830;2022-12-18T00:21:29;25.57;;;15.43;;
45676;SDS011;31390;51.186;6.830;2022-12-18T00:23:55;21.67;;;13.33;;
45676;SDS011;31390;51.186;6.830;2022-12-18T00:26:26;18.93;;;13.20;;
45676;SDS011;31390;51.186;6.830;2022-12-18T00:29:00;20.17;;;13.87;;
45676;SDS011;31390;51.186;6.830;2022-12-18T00:31:29;18.03;;;14.63;;
45676;SDS011;31390;51.186;6.830;2022-12-18T00:33:56;20.30;;;13.67;;
45676;SDS011;31390;51.186;6.830;2022-12-18T00:36:24;20.20;;;13.80;;
45676;SDS011;31390;51.186;6.830;2022-12-18T00:38:52;18.57;;;13.90;;
45676;SDS011;31390;51.186;6.830;2022-12-18T00:41:19;22.60;;;14.70;;
45676;SDS011;31390;51.186;6.830;2022-12-18T00:44:04;22.53;;;15.20;;
45676;SDS011;31390;51.186;6.830;2022-12-18T00:46:31;22.30;;;14.33;;
45676;SDS011;31390;51.186;6.830;2022-12-18T00:48:57;21.53;;;14.20;;
45676;SDS011;31390;51.186;6.830;2022-12-18T00:51:24;20.83;;;14.77;;
45676;SDS011;31390;51.186;6.830;2022-12-18T00:53:51;25.53;;;15.03;;
45676;SDS011;31390;51.186;6.830;2022-12-18T00:56:17;21.83;;;14.57;;
45676;SDS011;31390;51.186;6.830;2022-12-18T00:58:47;21.60;;;13.77;;
45676;SDS011;31390;51.186;6.830;2022-12-18T01:01:13;23.07;;;14.60;;
45676;SDS011;31390;51.186;6.830;2022-12-18T01:03:40;24.57;;;15.23;;
45676;SDS011;31390;51.186;6.830;2022-12-18T01:06:09;20.97;;;14.20;;
45676;SDS011;31390;51.186;6.830;2022-12-18T01:08:35;20.50;;;14.90;;
45676;SDS011;31390;51.186;6.830;2022-12-18T01:11:17;23.30;;;15.07;;
45676;SDS011;31390;51.186;6.830;2022-12-18T01:13:44;25.10;;;15.83;;
45676;SDS011;31390;51.186;6.830;2022-12-18T01:16:12;23.90;;;15.03;;
45676;SDS011;31390;51.186;6.830;2022-12-18T01:18:39;22.47;;;15.90;;
45676;SDS011;31390;51.186;6.830;2022-12-18T01:21:06;21.37;;;14.50;;
45676;SDS011;31390;51.186;6.830;2022-12-18T01:23:35;23.93;;;15.93;;
45676;SDS011;31390;51.186;6.830;2022-12-18T01:26:06;22.70;;;15.23;;
45676;SDS011;31390;51.186;6.830;2022-12-18T01:28:34;23.53;;;15.20;;
45676;SDS011;31390;51.186;6.830;2022-12-18T01:31:14;20.23;;;14.40;;
45676;SDS011;31390;51.186;6.830;2022-12-18T01:33:41;22.90;;;15.37;;
45676;SDS011;31390;51.186;6.830;2022-12-18T01:36:08;22.30;;;14.67;;
45676;SDS011;31390;51.186;6.830;2022-12-18T01:38:35;21.53;;;14.00;;
45676;SDS011;31390;51.186;6.830;2022-12-18T01:41:01;24.70;;;15.47;;
45676;SDS011;31390;51.186;6.830;2022-12-18T01:46:27;16.20;;;14.47;;
45676;SDS011;31390;51.186;6.830;2022-12-18T01:48:56;18.97;;;15.20;;
45676;SDS011;31390;51.186;6.830;2022-12-18T01:51:23;19.23;;;14.30;;
45676;SDS011;31390;51.186;6.830;2022-12-18T01:53:50;21.30;;;14.97;;
45676;SDS011;31390;51.186;6.830;2022-12-18T01:56:17;23.97;;;15.27;;
45676;SDS011;31390;51.186;6.830;2022-12-18T01:59:01;24.00;;;15.03;;
45676;SDS011;31390;51.186;6.830;2022-12-18T02:01:29;23.63;;;15.03;;
45676;SDS011;31390;51.186;6.830;2022-12-18T02:04:19;17.33;;;14.53;;
45676;SDS011;31390;51.186;6.830;2022-12-18T02:06:46;24.37;;;14.90;;
45676;SDS011;31390;51.186;6.830;2022-12-18T02:09:18;25.13;;;15.27;;
45676;SDS011;31390;51.186;6.830;2022-12-18T02:14:35;20.43;;;15.27;;
45676;SDS011;31390;51.186;6.830;2022-12-18T02:17:06;23.47;;;15.20;;
45676;SDS011;31390;51.186;6.830;2022-12-18T02:22:14;24.07;;;16.20;;
45676;SDS011;31390;51.186;6.830;2022-12-18T02:27:16;24.07;;;14.10;;
45676;SDS011;31390;51.186;6.830;2022-12-18T02:29:50;25.80;;;14.87;;
45676;SDS011;31390;51.186;6.830;2022-12-18T02:32:28;23.83;;;14.63;;
45676;SDS011;31390;51.186;6.830;2022-12-18T02:34:55;21.93;;;14.53;;
45676;SDS011;31390;51.186;6.830;2022-12-18T02:37:24;22.17;;;13.40;;
45676;SDS011;31390;51.186;6.830;2022-12-18T02:39:52;20.53;;;13.57;;
45676;SDS011;31390;51.186;6.830;2022-12-18T02:42:22;16.93;;;13.97;;
45676;SDS011;31390;51.186;6.830;2022-12-18T02:44:49;22.50;;;14.70;;
45676;SDS011;31390;51.186;6.830;2022-12-18T02:47:20;18.43;;;13.13;;
45676;SDS011;31390;51.186;6.830;2022-12-18T02:57:32;23.23;;;14.10;;
45676;SDS011;31390;51.186;6.830;2022-12-18T03:05:13;21.23;;;14.10;;
45676;SDS011;31390;51.186;6.830;2022-12-18T03:10:13;21.00;;;13.30;;
45676;SDS011;31390;51.186;6.830;2022-12-18T03:12:45;20.20;;;13.20;;
45676;SDS011;31390;51.186;6.830;2022-12-18T03:15:18;20.10;;;12.50;;
45676;SDS011;31390;51.186;6.830;2022-12-18T03:17:52;18.63;;;12.83;;
45676;SDS011;31390;51.186;6.830;2022-12-18T03:20:24;23.40;;;13.50;;
45676;SDS011;31390;51.186;6.830;2022-12-18T03:23:05;20.70;;;13.20;;
45676;SDS011;31390;51.186;6.830;2022-12-18T03:25:35;15.37;;;13.30;;
45676;SDS011;31390;51.186;6.830;2022-12-18T03:28:04;20.13;;;13.97;;
45676;SDS011;31390;51.186;6.830;2022-12-18T03:30:33;19.53;;;13.87;;
45676;SDS011;31390;51.186;6.830;2022-12-18T03:33:02;19.07;;;13.33;;
45676;SDS011;31390;51.186;6.830;2022-12-18T03:35:33;20.40;;;13.07;;
45676;SDS011;31390;51.186;6.830;2022-12-18T03:38:00;18.37;;;13.30;;
45676;SDS011;31390;51.186;6.830;2022-12-18T03:43:16;16.40;;;13.63;;
45676;SDS011;31390;51.186;6.830;2022-12-18T03:45:51;20.37;;;13.07;;
45676;SDS011;31390;51.186;6.830;2022-12-18T03:48:20;22.20;;;13.67;;
45676;SDS011;31390;51.186;6.830;2022-12-18T03:53:28;22.77;;;13.27;;
45676;SDS011;31390;51.186;6.830;2022-12-18T03:55:59;17.93;;;13.30;;
45676;SDS011;31390;51.186;6.830;2022-12-18T03:58:31;24.83;;;14.73;;
45676;SDS011;31390;51.186;6.830;2022-12-18T04:01:13;22.20;;;13.60;;
45676;SDS011;31390;51.186;6.830;2022-12-18T04:03:42;20.13;;;13.10;;
45676;SDS011;31390;51.186;6.830;2022-12-18T04:06:10;20.23;;;14.03;;
45676;SDS011;31390;51.186;6.830;2022-12-18T04:08:39;16.00;;;13.50;;
45676;SDS011;31390;51.186;6.830;2022-12-18T04:11:08;22.57;;;13.33;;
45676;SDS011;31390;51.186;6.830;2022-12-18T04:13:37;20.13;;;13.37;;
45676;SDS011;31390;51.186;6.830;2022-12-18T04:16:08;21.53;;;13.60;;
45676;SDS011;31390;51.186;6.830;2022-12-18T04:18:39;22.50;;;13.13;;
45676;SDS011;31390;51.186;6.830;2022-12-18T04:21:06;20.13;;;13.23;;
45676;SDS011;31390;51.186;6.830;2022-12-18T04:23:33;21.63;;;13.03;;
45676;SDS011;31390;51.186;6.830;2022-12-18T04:26:00;21.73;;;12.90;;
45676;SDS011;31390;51.186;6.830;2022-12-18T04:28:48;18.40;;;12.47;;
45676;SDS011;31390;51.186;6.830;2022-12-18T04:31:15;22.40;;;13.40;;
45676;SDS011;31390;51.186;6.830;2022-12-18T04:33:42;16.43;;;13.40;;
45676;SDS011;31390;51.186;6.830;2022-12-18T04:36:09;20.70;;;13.30;;
45676;SDS011;31390;51.186;6.830;2022-12-18T04:38:36;24.73;;;13.90;;
45676;SDS011;31390;51.186;6.830;2022-12-18T04:41:06;19.67;;;12.83;;
45676;SDS011;31390;51.186;6.830;2022-12-18T04:43:33;22.13;;;13.77;;
45676;SDS011;31390;51.186;6.830;2022-12-18T04:46:04;22.77;;;14.23;;
45676;SDS011;31390;51.186;6.830;2022-12-18T04:48:30;24.73;;;14.77;;
45676;SDS011;31390;51.186;6.830;2022-12-18T04:50:57;16.33;;;13.70;;
45676;SDS011;31390;51.186;6.830;2022-12-18T04:53:23;22.87;;;14.33;;
45676;SDS011;31390;51.186;6.830;2022-12-18T04:55:50;22.80;;;14.37;;
45676;SDS011;31390;51.186;6.830;2022-12-18T04:58:16;19.63;;;14.77;;
45676;SDS011;31390;51.186;6.830;2022-12-18T05:00:43;23.33;;;14.30;;
45676;SDS011;31390;51.186;6.830;2022-12-18T05:03:09;21.97;;;13.20;;
45676;SDS011;31390;51.186;6.830;2022-12-18T05:05:36;23.43;;;13.80;;
45676;SDS011;31390;51.186;6.830;2022-12-18T05:08:02;23.83;;;13.87;;
45676;SDS011;31390;51.186;6.830;2022-12-18T05:10:29;23.43;;;14.23;;
45676;SDS011;31390;51.186;6.830;2022-12-18T05:13:03;16.47;;;13.30;;
45676;SDS011;31390;51.186;6.830;2022-12-18T05:15:30;24.20;;;14.87;;
45676;SDS011;31390;51.186;6.830;2022-12-18T05:17:57;26.27;;;14.00;;
45676;SDS011;31390;51.186;6.830;2022-12-18T05:20:24;27.57;;;14.20;;
45676;SDS011;31390;51.186;6.830;2022-12-18T05:22:52;25.33;;;15.83;;
45676;SDS011;31390;51.186;6.830;2022-12-18T05:25:18;24.47;;;16.17;;
45676;SDS011;31390;51.186;6.830;2022-12-18T05:27:46;29.57;;;15.97;;
45676;SDS011;31390;51.186;6.830;2022-12-18T05:30:12;27.93;;;16.03;;
45676;SDS011;31390;51.186;6.830;2022-12-18T05:32:39;23.93;;;14.37;;
45676;SDS011;31390;51.186;6.830;2022-12-18T05:35:06;22.00;;;13.73;;
45676;SDS011;31390;51.186;6.830;2022-12-18T05:37:33;19.50;;;14.00;;
45676;SDS011;31390;51.186;6.830;2022-12-18T05:40:07;16.87;;;13.73;;
45676;SDS011;31390;51.186;6.830;2022-12-18T05:42:34;22.90;;;14.80;;
45676;SDS011;31390;51.186;6.830;2022-12-18T05:45:00;27.80;;;14.60;;
45676;SDS011;31390;51.186;6.830;2022-12-18T05:47:27;25.57;;;14.43;;
45676;SDS011;31390;51.186;6.830;2022-12-18T05:49:54;25.57;;;14.40;;
45676;SDS011;31390;51.186;6.830;2022-12-18T05:52:21;21.40;;;13.37;;
45676;SDS011;31390;51.186;6.830;2022-12-18T05:54:47;21.20;;;13.97;;
45676;SDS011;31390;51.186;6.830;2022-12-18T05:57:14;16.07;;;13.47;;
45676;SDS011;31390;51.186;6.830;2022-12-18T05:59:40;17.00;;;13.53;;
45676;SDS011;31390;51.186;6.830;2022-12-18T06:02:08;21.33;;;13.87;;
45676;SDS011;31390;51.186;6.830;2022-12-18T06:04:34;19.83;;;12.40;;
45676;SDS011;31390;51.186;6.830;2022-12-18T06:07:01;17.33;;;11.60;;
45676;SDS011;31390;51.186;6.830;2022-12-18T06:09:30;18.57;;;12.47;;
45676;SDS011;31390;51.186;6.830;2022-12-18T06:11:58;21.40;;;12.43;;
45676;SDS011;31390;51.186;6.830;2022-12-18T06:14:24;15.07;;;11.83;;
45676;SDS011;31390;51.186;6.830;2022-12-18T06:16:53;16.00;;;11.43;;
45676;SDS011;31390;51.186;6.830;2022-12-18T06:19:19;19.63;;;13.27;;
45676;SDS011;31390;51.186;6.830;2022-12-18T06:21:46;21.17;;;13.87;;
45676;SDS011;31390;51.186;6.830;2022-12-18T06:24:13;21.33;;;13.37;;
45676;SDS011;31390;51.186;6.830;2022-12-18T06:26:39;20.53;;;14.00;;
45676;SDS011;31390;51.186;6.830;2022-12-18T06:29:07;22.27;;;14.20;;
45676;SDS011;31390;51.186;6.830;2022-12-18T06:31:33;20.77;;;12.70;;
45676;SDS011;31390;51.186;6.830;2022-12-18T06:34:04;18.83;;;12.63;;
45676;SDS011;31390;51.186;6.830;2022-12-18T06:36:30;28.00;;;14.57;;
45676;SDS011;31390;51.186;6.830;2022-12-18T06:38:57;27.33;;;16.43;;
45676;SDS011;31390;51.186;6.830;2022-12-18T06:41:24;16.77;;;13.90;;
45676;SDS011;31390;51.186;6.830;2022-12-18T06:43:50;19.80;;;14.10;;
45676;SDS011;31390;51.186;6.830;2022-12-18T06:46:23;23.07;;;14.10;;
45676;SDS011;31390;51.186;6.830;2022-12-18T06:48:50;22.20;;;13.37;;
45676;SDS011;31390;51.186;6.830;2022-12-18T06:51:20;23.67;;;13.30;;
45676;SDS011;31390;51.186;6.830;2022-12-18T06:53:46;22.70;;;13.80;;
45676;SDS011;31390;51.186;6.830;2022-12-18T06:56:13;19.03;;;12.60;;
45676;SDS011;31390;51.186;6.830;2022-12-18T06:58:40;19.33;;;12.67;;
45676;SDS011;31390;51.186;6.830;2022-12-18T07:01:08;17.20;;;13.50;;
45676;SDS011;31390;51.186;6.830;2022-12-18T07:03:35;21.33;;;13.13;;
45676;SDS011;31390;51.186;6.830;2022-12-18T07:06:02;20.87;;;13.37;;
45676;SDS011;31390;51.186;6.830;2022-12-18T07:08:29;19.03;;;13.13;;
45676;SDS011;31390;51.186;6.830;2022-12-18T07:10:56;17.90;;;13.03;;
45676;SDS011;31390;51.186;6.830;2022-12-18T07:13:23;19.37;;;13.17;;
45676;SDS011;31390;51.186;6.830;2022-12-18T07:15:50;16.87;;;13.40;;
45676;SDS011;31390;51.186;6.830;2022-12-18T07:18:16;20.50;;;13.33;;
45676;SDS011;31390;51.186;6.830;2022-12-18T07:20:42;21.83;;;13.17;;
45676;SDS011;31390;51.186;6.830;2022-12-18T07:23:11;22.57;;;13.53;;
45676;SDS011;31390;51.186;6.830;2022-12-18T07:25:37;17.37;;;12.40;;
45676;SDS011;31390;51.186;6.830;2022-12-18T07:28:04;19.30;;;13.57;;
45676;SDS011;31390;51.186;6.830;2022-12-18T07:30:30;23.37;;;14.37;;
45676;SDS011;31390;51.186;6.830;2022-12-18T07:32:57;24.13;;;13.53;;
45676;SDS011;31390;51.186;6.830;2022-12-18T07:35:23;23.47;;;13.93;;
45676;SDS011;31390;51.186;6.830;2022-12-18T07:37:50;21.57;;;13.27;;
45676;SDS011;31390;51.186;6.830;2022-12-18T07:40:18;23.10;;;14.03;;
45676;SDS011;31390;51.186;6.830;2022-12-18T07:42:45;18.37;;;13.33;;
45676;SDS011;31390;51.186;6.830;2022-12-18T07:45:11;20.33;;;12.33;;
45676;SDS011;31390;51.186;6.830;2022-12-18T07:47:38;21.50;;;13.87;;
45676;SDS011;31390;51.186;6.830;2022-12-18T07:50:05;19.93;;;13.73;;
45676;SDS011;31390;51.186;6.830;2022-12-18T07:52:31;19.17;;;13.57;;
45676;SDS011;31390;51.186;6.830;2022-12-18T07:54:58;17.83;;;14.00;;
45676;SDS011;31390;51.186;6.830;2022-12-18T07:57:25;20.70;;;14.07;;
45676;SDS011;31390;51.186;6.830;2022-12-18T08:00:11;15.53;;;13.30;;
45676;SDS011;31390;51.186;6.830;2022-12-18T08:02:38;19.63;;;14.10;;
45676;SDS011;31390;51.186;6.830;2022-12-18T08:05:05;22.03;;;13.50;;
45676;SDS011;31390;51.186;6.830;2022-12-18T08:07:32;19.40;;;13.33;;
45676;SDS011;31390;51.186;6.830;2022-12-18T08:09:58;24.30;;;12.50;;
45676;SDS011;31390;51.186;6.830;2022-12-18T08:12:25;21.27;;;13.43;;
45676;SDS011;31390;51.186;6.830;2022-12-18T08:14:51;24.17;;;13.63;;
45676;SDS011;31390;51.186;6.830;2022-12-18T08:17:19;20.57;;;13.00;;
45676;SDS011;31390;51.186;6.830;2022-12-18T08:19:45;23.47;;;14.17;;
45676;SDS011;31390;51.186;6.830;2022-12-18T08:22:12;22.40;;;14.00;;
45676;SDS011;31390;51.186;6.830;2022-12-18T08:24:38;18.17;;;13.63;;
45676;SDS011;31390;51.186;6.830;2022-12-18T08:27:05;22.97;;;13.57;;
45676;SDS011;31390;51.186;6.830;2022-12-18T08:29:51;19.93;;;13.13;;
45676;SDS011;31390;51.186;6.830;2022-12-18T08:32:17;21.90;;;13.43;;
45676;SDS011;31390;51.186;6.830;2022-12-18T08:34:44;16.00;;;13.43;;
45676;SDS011;31390;51.186;6.830;2022-12-18T08:37:10;22.77;;;12.77;;
45676;SDS011;31390;51.186;6.830;2022-12-18T08:39:37;20.80;;;12.37;;
45676;SDS011;31390;51.186;6.830;2022-12-18T08:42:03;18.33;;;12.90;;
45676;SDS011;31390;51.186;6.830;2022-12-18T08:44:48;18.03;;;13.70;;
45676;SDS011;31390;51.186;6.830;2022-12-18T08:47:15;18.97;;;14.70;;
45676;SDS011;31390;51.186;6.830;2022-12-18T08:49:41;21.20;;;13.77;;
45676;SDS011;31390;51.186;6.830;2022-12-18T08:52:08;20.47;;;13.80;;
45676;SDS011;31390;51.186;6.830;2022-12-18T08:54:35;23.03;;;14.20;;
45676;SDS011;31390;51.186;6.830;2022-12-18T08:57:01;22.27;;;14.53;;
45676;SDS011;31390;51.186;6.830;2022-12-18T08:59:28;17.73;;;13.60;;
45676;SDS011;31390;51.186;6.830;2022-12-18T09:01:55;16.30;;;13.70;;
45676;SDS011;31390;51.186;6.830;2022-12-18T09:04:22;17.70;;;13.40;;
45676;SDS011;31390;51.186;6.830;2022-12-18T09:06:49;18.03;;;13.50;;
45676;SDS011;31390;51.186;6.830;2022-12-18T09:09:15;17.47;;;12.53;;
45676;SDS011;31390;51.186;6.830;2022-12-18T09:11:41;20.33;;;12.77;;
45676;SDS011;31390;51.186;6.830;2022-12-18T09:14:08;20.17;;;12.93;;
45676;SDS011;31390;51.186;6.830;2022-12-18T09:16:34;20.00;;;12.53;;
45676;SDS011;31390;51.186;6.830;2022-12-18T09:19:02;19.83;;;12.53;;
45676;SDS011;31390;51.186;6.830;2022-12-18T09:21:30;23.50;;;13.03;;
45676;SDS011;31390;51.186;6.830;2022-12-18T09:23:58;19.60;;;14.37;;
45676;SDS011;31390;51.186;6.830;2022-12-18T09:26:25;19.57;;;13.80;;
45676;SDS011;31390;51.186;6.830;2022-12-18T09:28:52;17.40;;;12.60;;
45676;SDS011;31390;51.186;6.830;2022-12-18T09:31:20;20.33;;;14.27;;
45676;SDS011;31390;51.186;6.830;2022-12-18T09:33:46;22.70;;;13.67;;
45676;SDS011;31390;51.186;6.830;2022-12-18T09:36:15;15.23;;;12.13;;
45676;SDS011;31390;51.186;6.830;2022-12-18T09:38:43;14.53;;;12.37;;
45676;SDS011;31390;51.186;6.830;2022-12-18T09:43:50;14.37;;;11.93;;
45676;SDS011;31390;51.186;6.830;2022-12-18T09:46:31;17.87;;;12.50;;
45676;SDS011;31390;51.186;6.830;2022-12-18T09:49:00;17.70;;;12.30;;
45676;SDS011;31390;51.186;6.830;2022-12-18T09:51:33;15.83;;;12.47;;
45676;SDS011;31390;51.186;6.830;2022-12-18T09:54:06;14.23;;;11.47;;
45676;SDS011;31390;51.186;6.830;2022-12-18T09:56:38;13.00;;;11.60;;
45676;SDS011;31390;51.186;6.830;2022-12-18T09:59:09;17.00;;;12.27;;
45676;SDS011;31390;51.186;6.830;2022-12-18T10:01:40;14.00;;;12.07;;
45676;SDS011;31390;51.186;6.830;2022-12-18T10:04:10;18.77;;;12.40;;
45676;SDS011;31390;51.186;6.830;2022-12-18T10:06:48;15.90;;;12.20;;
45676;SDS011;31390;51.186;6.830;2022-12-18T10:09:22;15.13;;;12.33;;
45676;SDS011;31390;51.186;6.830;2022-12-18T10:11:55;14.53;;;11.53;;
45676;SDS011;31390;51.186;6.830;2022-12-18T10:14:34;15.57;;;12.70;;
45676;SDS011;31390;51.186;6.830;2022-12-18T10:19:49;14.50;;;11.93;;
45676;SDS011;31390;51.186;6.830;2022-12-18T10:27:41;13.13;;;11.60;;
45676;SDS011;31390;51.186;6.830;2022-12-18T10:30:18;14.03;;;11.07;;
45676;SDS011;31390;51.186;6.830;2022-12-18T10:32:45;13.87;;;11.67;;
45676;SDS011;31390;51.186;6.830;2022-12-18T10:35:22;15.23;;;11.50;;
45676;SDS011;31390;51.186;6.830;2022-12-18T10:38:20;15.30;;;12.07;;
45676;SDS011;31390;51.186;6.830;2022-12-18T10:40:49;13.57;;;11.60;;
45676;SDS011;31390;51.186;6.830;2022-12-18T10:43:19;13.13;;;11.10;;
45676;SDS011;31390;51.186;6.830;2022-12-18T10:45:58;13.20;;;11.37;;
45676;SDS011;31390;51.186;6.830;2022-12-18T10:48:25;13.50;;;11.03;;
45676;SDS011;31390;51.186;6.830;2022-12-18T10:50:53;14.53;;;11.73;;
45676;SDS011;31390;51.186;6.830;2022-12-18T10:53:38;15.30;;;11.30;;
45676;SDS011;31390;51.186;6.830;2022-12-18T10:56:06;15.00;;;11.20;;
45676;SDS011;31390;51.186;6.830;2022-12-18T10:58:34;12.23;;;10.70;;
45676;SDS011;31390;51.186;6.830;2022-12-18T11:01:02;14.47;;;11.50;;
45676;SDS011;31390;51.186;6.830;2022-12-18T11:03:33;13.93;;;10.20;;
45676;SDS011;31390;51.186;6.830;2022-12-18T11:06:06;14.30;;;11.50;;
45676;SDS011;31390;51.186;6.830;2022-12-18T11:08:36;12.93;;;10.70;;
45676;SDS011;31390;51.186;6.830;2022-12-18T11:11:04;13.60;;;11.43;;
45676;SDS011;31390;51.186;6.830;2022-12-18T11:13:32;13.17;;;11.30;;
45676;SDS011;31390;51.186;6.830;2022-12-18T11:15:59;12.23;;;10.57;;
45676;SDS011;31390;51.186;6.830;2022-12-18T11:18:31;12.73;;;11.00;;
45676;SDS011;31390;51.186;6.830;2022-12-18T11:20:59;13.43;;;10.23;;
45676;SDS011;31390;51.186;6.830;2022-12-18T11:23:27;16.20;;;11.80;;
45676;SDS011;31390;51.186;6.830;2022-12-18T11:25:55;13.83;;;12.37;;
45676;SDS011;31390;51.186;6.830;2022-12-18T11:33:37;13.33;;;10.93;;
45676;SDS011;31390;51.186;6.830;2022-12-18T11:36:23;14.30;;;10.57;;
45676;SDS011;31390;51.186;6.830;2022-12-18T11:38:52;15.50;;;11.40;;
45676;SDS011;31390;51.186;6.830;2022-12-18T11:44:14;13.17;;;11.13;;
45676;SDS011;31390;51.186;6.830;2022-12-18T11:46:51;14.80;;;10.20;;
45676;SDS011;31390;51.186;6.830;2022-12-18T11:49:24;16.73;;;11.70;;
45676;SDS011;31390;51.186;6.830;2022-12-18T11:54:18;16.00;;;11.50;;
45676;SDS011;31390;51.186;6.830;2022-12-18T12:02:17;14.53;;;12.07;;
45676;SDS011;31390;51.186;6.830;2022-12-18T12:04:53;16.27;;;12.43;;
45676;SDS011;31390;51.186;6.830;2022-12-18T12:07:58;15.60;;;12.17;;
45676;SDS011;31390;51.186;6.830;2022-12-18T12:10:38;15.00;;;12.07;;
45676;SDS011;31390;51.186;6.830;2022-12-18T12:23:38;15.20;;;12.50;;
45676;SDS011;31390;51.186;6.830;2022-12-18T12:26:15;16.60;;;13.23;;
45676;SDS011;31390;51.186;6.830;2022-12-18T12:31:21;15.30;;;13.43;;
45676;SDS011;31390;51.186;6.830;2022-12-18T12:34:52;19.53;;;13.60;;
45676;SDS011;31390;51.186;6.830;2022-12-18T12:36:51;15.40;;;13.70;;
45676;SDS011;31390;51.186;6.830;2022-12-18T12:39:21;16.97;;;13.57;;
45676;SDS011;31390;51.186;6.830;2022-12-18T12:41:49;16.07;;;13.70;;
45676;SDS011;31390;51.186;6.830;2022-12-18T12:44:38;17.83;;;13.77;;
45676;SDS011;31390;51.186;6.830;2022-12-18T12:47:16;16.97;;;14.17;;
45676;SDS011;31390;51.186;6.830;2022-12-18T12:49:44;15.53;;;13.23;;
45676;SDS011;31390;51.186;6.830;2022-12-18T12:52:28;16.40;;;13.80;;
45676;SDS011;31390;51.186;6.830;2022-12-18T12:54:55;19.70;;;14.07;;
45676;SDS011;31390;51.186;6.830;2022-12-18T12:57:24;20.73;;;15.77;;
45676;SDS011;31390;51.186;6.830;2022-12-18T13:00:04;20.47;;;15.23;;
45676;SDS011;31390;51.186;6.830;2022-12-18T13:08:08;22.70;;;16.23;;
45676;SDS011;31390;51.186;6.830;2022-12-18T13:10:42;17.97;;;15.67;;
45676;SDS011;31390;51.186;6.830;2022-12-18T13:13:12;18.87;;;15.37;;
45676;SDS011;31390;51.186;6.830;2022-12-18T13:15:47;20.97;;;15.37;;
45676;SDS011;31390;51.186;6.830;2022-12-18T13:20:46;19.27;;;15.33;;
45676;SDS011;31390;51.186;6.830;2022-12-18T13:33:49;20.77;;;15.13;;
45676;SDS011;31390;51.186;6.830;2022-12-18T13:36:36;20.43;;;14.93;;
45676;SDS011;31390;51.186;6.830;2022-12-18T13:39:10;18.37;;;15.33;;
45676;SDS011;31390;51.186;6.830;2022-12-18T13:41:36;21.27;;;16.67;;
45676;SDS011;31390;51.186;6.830;2022-12-18T13:46:49;23.33;;;16.90;;
45676;SDS011;31390;51.186;6.830;2022-12-18T13:49:23;18.97;;;14.93;;
45676;SDS011;31390;51.186;6.830;2022-12-18T13:51:51;21.30;;;15.93;;
45676;SDS011;31390;51.186;6.830;2022-12-18T13:54:24;20.17;;;15.77;;
45676;SDS011;31390;51.186;6.830;2022-12-18T13:56:51;21.57;;;16.30;;
45676;SDS011;31390;51.186;6.830;2022-12-18T13:59:19;19.60;;;15.30;;
45676;SDS011;31390;51.186;6.830;2022-12-18T14:06:57;21.93;;;16.60;;
45676;SDS011;31390;51.186;6.830;2022-12-18T14:09:26;20.27;;;16.80;;
45676;SDS011;31390;51.186;6.830;2022-12-18T14:11:55;22.10;;;15.57;;
45676;SDS011;31390;51.186;6.830;2022-12-18T14:14:45;18.13;;;15.83;;
45676;SDS011;31390;51.186;6.830;2022-12-18T14:17:14;21.87;;;16.60;;
45676;SDS011;31390;51.186;6.830;2022-12-18T14:19:43;19.27;;;16.23;;
45676;SDS011;31390;51.186;6.830;2022-12-18T14:22:18;17.43;;;15.53;;
45676;SDS011;31390;51.186;6.830;2022-12-18T14:24:44;23.03;;;17.83;;
45676;SDS011;31390;51.186;6.830;2022-12-18T14:27:20;20.07;;;17.00;;
45676;SDS011;31390;51.186;6.830;2022-12-18T14:29:47;22.07;;;18.03;;
45676;SDS011;31390;51.186;6.830;2022-12-18T14:32:14;22.87;;;17.00;;
45676;SDS011;31390;51.186;6.830;2022-12-18T14:34:48;24.23;;;17.90;;
45676;SDS011;31390;51.186;6.830;2022-12-18T14:37:15;26.07;;;18.17;;
45676;SDS011;31390;51.186;6.830;2022-12-18T14:39:53;20.37;;;17.13;;
45676;SDS011;31390;51.186;6.830;2022-12-18T14:42:20;22.47;;;17.30;;
45676;SDS011;31390;51.186;6.830;2022-12-18T14:44:47;22.90;;;17.10;;
45676;SDS011;31390;51.186;6.830;2022-12-18T14:47:33;19.73;;;17.33;;
45676;SDS011;31390;51.186;6.830;2022-12-18T14:50:00;21.90;;;16.87;;
45676;SDS011;31390;51.186;6.830;2022-12-18T14:52:27;20.53;;;17.00;;
45676;SDS011;31390;51.186;6.830;2022-12-18T14:54:55;19.87;;;17.37;;
45676;SDS011;31390;51.186;6.830;2022-12-18T14:57:22;26.47;;;18.03;;
45676;SDS011;31390;51.186;6.830;2022-12-18T14:59:50;20.87;;;16.87;;
45676;SDS011;31390;51.186;6.830;2022-12-18T15:02:21;20.17;;;17.07;;
45676;SDS011;31390;51.186;6.830;2022-12-18T15:05:02;21.73;;;17.00;;
45676;SDS011;31390;51.186;6.830;2022-12-18T15:07:42;21.60;;;17.90;;
45676;SDS011;31390;51.186;6.830;2022-12-18T15:10:11;20.03;;;17.27;;
45676;SDS011;31390;51.186;6.830;2022-12-18T15:12:47;21.90;;;18.53;;
45676;SDS011;31390;51.186;6.830;2022-12-18T15:18:00;19.17;;;16.87;;
45676;SDS011;31390;51.186;6.830;2022-12-18T15:20:30;21.47;;;17.97;;
45676;SDS011;31390;51.186;6.830;2022-12-18T15:22:57;27.30;;;19.30;;
45676;SDS011;31390;51.186;6.830;2022-12-18T15:25:27;27.67;;;18.97;;
45676;SDS011;31390;51.186;6.830;2022-12-18T15:27:55;20.80;;;17.50;;
45676;SDS011;31390;51.186;6.830;2022-12-18T15:30:22;19.57;;;17.17;;
45676;SDS011;31390;51.186;6.830;2022-12-18T15:32:49;20.90;;;17.97;;
45676;SDS011;31390;51.186;6.830;2022-12-18T15:37:45;23.97;;;18.83;;
45676;SDS011;31390;51.186;6.830;2022-12-18T15:40:15;26.97;;;18.93;;
45676;SDS011;31390;51.186;6.830;2022-12-18T15:42:42;23.50;;;18.70;;
45676;SDS011;31390;51.186;6.830;2022-12-18T15:45:29;23.83;;;18.80;;
45676;SDS011;31390;51.186;6.830;2022-12-18T15:47:56;26.37;;;17.90;;
45676;SDS011;31390;51.186;6.830;2022-12-18T15:50:23;24.97;;;19.17;;
45676;SDS011;31390;51.186;6.830;2022-12-18T15:52:49;27.43;;;18.93;;
45676;SDS011;31390;51.186;6.830;2022-12-18T15:55:18;27.10;;;19.33;;
45676;SDS011;31390;51.186;6.830;2022-12-18T15:58:05;26.43;;;18.93;;
45676;SDS011;31390;51.186;6.830;2022-12-18T16:00:31;28.40;;;19.23;;
45676;SDS011;31390;51.186;6.830;2022-12-18T16:02:58;24.33;;;19.43;;
45676;SDS011;31390;51.186;6.830;2022-12-18T16:05:29;24.47;;;20.13;;
45676;SDS011;31390;51.186;6.830;2022-12-18T16:07:56;27.17;;;18.93;;
45676;SDS011;31390;51.186;6.830;2022-12-18T16:10:22;26.83;;;19.20;;
45676;SDS011;31390;51.186;6.830;2022-12-18T16:12:50;27.57;;;19.33;;
45676;SDS011;31390;51.186;6.830;2022-12-18T16:15:16;25.23;;;19.20;;
45676;SDS011;31390;51.186;6.830;2022-12-18T16:17:49;26.23;;;20.10;;
45676;SDS011;31390;51.186;6.830;2022-12-18T16:20:17;29.57;;;20.80;;